Schneider, Indiana
Current Conditions -  °F | °C
As of 6:15 PM on Wednesday 22 Oct 2014 (Local Time) from KRZL Reporting Station
Clear Clear  
Wind Chill: 52°   Ceiling: Unl
Heat Index: 52°   Visibility: 10mi
Dew Point: 32°   Wind: 3mph
Humidity: 47%   Direction: 20°NNE
Pressure: 30.27"   Gusts: NA
Location:  41.19°N, 87.45°W
Report Text: KRZL 222315Z AUTO 02003KT 10SM CLR 11/00 A3027 RMK AO2
Loading
Personal Weather Stations






























Interactive Weather Map
Tropical Storm Tracking
New forecast layout! Learn more

10-Day Weather Forecast

Advertisements
Track Severe Weather on mobile